createdAt,value
2022-12-04T00:00:52.818Z,497.85
2022-12-04T00:03:19.595Z,501.55
2022-12-04T00:05:46.213Z,503.25
2022-12-04T00:08:13.031Z,495.83
2022-12-04T00:10:43.981Z,484.93
2022-12-04T00:13:10.643Z,493.63
2022-12-04T00:15:42.376Z,494.93
2022-12-04T00:18:09.021Z,491.97
2022-12-04T00:20:40.263Z,493.00
2022-12-04T00:23:07.440Z,495.50
2022-12-04T00:25:39.260Z,490.85
2022-12-04T00:28:07.658Z,494.40
2022-12-04T00:30:34.182Z,503.75
2022-12-04T00:33:00.824Z,497.15
2022-12-04T00:35:27.307Z,494.27
2022-12-04T00:37:53.878Z,499.02
2022-12-04T00:40:20.546Z,497.38
2022-12-04T00:42:47.158Z,495.25
2022-12-04T00:45:13.712Z,502.92
2022-12-04T00:47:40.359Z,494.93
2022-12-04T00:50:07.642Z,482.92
2022-12-04T00:52:34.326Z,485.90
2022-12-04T00:55:01.004Z,492.75
2022-12-04T00:57:27.649Z,490.80
2022-12-04T00:59:54.365Z,488.90
2022-12-04T01:02:21.250Z,498.15
2022-12-04T01:04:47.937Z,491.65
2022-12-04T01:07:14.559Z,493.87
2022-12-04T01:09:41.167Z,491.80
2022-12-04T01:12:07.809Z,491.85
2022-12-04T01:14:34.354Z,494.05
2022-12-04T01:17:01.067Z,493.95
2022-12-04T01:19:27.662Z,496.85
2022-12-04T01:21:54.236Z,489.48
2022-12-04T01:24:21.549Z,494.25
2022-12-04T01:26:48.166Z,490.52
2022-12-04T01:29:14.693Z,492.83
2022-12-04T01:31:41.454Z,489.00
2022-12-04T01:34:08.037Z,491.37
2022-12-04T01:36:34.634Z,497.92
2022-12-04T01:39:01.397Z,495.58
2022-12-04T01:41:30.363Z,497.73
2022-12-04T01:44:18.740Z,496.08
2022-12-04T01:46:49.831Z,501.27
2022-12-04T01:49:31.187Z,507.08
2022-12-04T01:52:02.202Z,499.75
2022-12-04T01:54:34.799Z,501.13
2022-12-04T01:57:11.747Z,493.63
2022-12-04T01:59:46.138Z,493.95
2022-12-04T02:02:16.113Z,497.17
2022-12-04T02:04:43.737Z,492.55
2022-12-04T02:07:11.099Z,494.98
2022-12-04T02:09:39.560Z,491.52
2022-12-04T02:12:24.608Z,494.83
2022-12-04T02:15:18.652Z,495.15
2022-12-04T02:18:08.594Z,492.57
2022-12-04T02:20:47.156Z,484.05
2022-12-04T02:23:16.715Z,486.27
2022-12-04T02:26:15.137Z,490.85
2022-12-04T02:28:51.674Z,490.17
2022-12-04T02:31:34.648Z,487.13
2022-12-04T02:34:06.730Z,484.33
2022-12-04T02:36:39.638Z,487.48
2022-12-04T02:39:16.269Z,482.90
2022-12-04T02:42:04.089Z,483.35
2022-12-04T02:45:06.263Z,487.50
2022-12-04T02:47:36.232Z,482.45
2022-12-04T02:50:08.260Z,482.58
2022-12-04T02:52:53.933Z,485.70
2022-12-04T02:55:28.091Z,487.52
2022-12-04T02:58:00.217Z,489.17
2022-12-04T03:00:29.212Z,491.27
2022-12-04T03:03:01.864Z,499.77
2022-12-04T03:05:39.096Z,498.25
2022-12-04T03:08:15.169Z,499.27
2022-12-04T03:10:49.190Z,498.55
2022-12-04T03:13:38.300Z,498.33
2022-12-04T03:16:11.134Z,494.63
2022-12-04T03:18:42.910Z,497.33
2022-12-04T03:21:21.559Z,499.63
2022-12-04T03:23:54.313Z,496.05
2022-12-04T03:26:32.440Z,492.05
2022-12-04T03:29:06.920Z,493.08
2022-12-04T03:32:12.130Z,493.93
2022-12-04T03:34:51.363Z,497.88
2022-12-04T03:37:24.463Z,494.05
2022-12-04T03:39:57.501Z,493.63
2022-12-04T03:42:32.538Z,491.35
2022-12-04T03:45:17.518Z,495.85
2022-12-04T03:47:59.293Z,486.97
2022-12-04T03:50:32.692Z,487.53
2022-12-04T03:53:24.928Z,492.38
2022-12-04T03:56:13.898Z,483.50
2022-12-04T03:58:46.594Z,479.05
2022-12-04T04:01:17.996Z,483.38
2022-12-04T04:03:51.671Z,484.25
2022-12-04T04:06:23.933Z,487.20
2022-12-04T04:08:55.147Z,485.48
2022-12-04T04:11:34.364Z,485.10
2022-12-04T04:14:24.675Z,484.83
2022-12-04T04:17:18.551Z,482.35
2022-12-04T04:20:09.048Z,482.85
2022-12-04T04:22:56.169Z,478.13
2022-12-04T04:25:26.716Z,479.13
2022-12-04T04:27:58.108Z,481.70
2022-12-04T04:30:25.899Z,488.83
2022-12-04T04:33:13.137Z,491.10
2022-12-04T04:51:23.222Z,498.43
2022-12-04T04:53:52.551Z,499.38
2022-12-04T04:56:21.332Z,498.75
2022-12-04T04:58:48.225Z,496.40
2022-12-04T05:01:20.671Z,499.00
2022-12-04T05:03:47.413Z,499.77
2022-12-04T05:06:14.309Z,491.60
2022-12-04T05:08:41.108Z,497.02
2022-12-04T05:11:13.015Z,493.52
2022-12-04T05:13:39.801Z,500.30
2022-12-04T05:16:10.345Z,501.43
2022-12-04T05:18:37.523Z,499.35
2022-12-04T05:21:09.021Z,495.52
2022-12-04T05:23:35.855Z,489.48
2022-12-04T05:26:05.109Z,498.93
2022-12-04T05:28:31.770Z,493.02
2022-12-04T05:31:02.220Z,485.88
2022-12-04T05:33:29.893Z,488.55
2022-12-04T05:36:00.725Z,490.83
2022-12-04T05:38:27.859Z,493.10
2022-12-04T05:40:54.484Z,497.85
2022-12-04T05:43:21.109Z,495.95
2022-12-04T05:45:47.693Z,498.85
2022-12-04T05:48:14.411Z,496.17
2022-12-04T05:50:41.238Z,495.55
2022-12-04T05:53:08.176Z,492.67
2022-12-04T05:55:34.863Z,494.17
2022-12-04T05:58:01.579Z,493.30
2022-12-04T06:00:28.838Z,485.00
2022-12-04T06:02:55.419Z,483.65
2022-12-04T06:05:23.459Z,492.60
2022-12-04T06:07:50.239Z,488.60
2022-12-04T06:10:16.814Z,493.77
2022-12-04T06:12:43.529Z,496.63
2022-12-04T06:15:10.700Z,498.20
2022-12-04T06:17:37.239Z,491.58
2022-12-04T06:20:09.554Z,490.13
2022-12-04T06:22:37.902Z,484.40
2022-12-04T06:25:04.663Z,491.45
2022-12-04T06:27:31.314Z,493.58
2022-12-04T06:29:58.169Z,495.55
2022-12-04T06:32:25.103Z,501.90
2022-12-04T06:34:53.395Z,503.25
2022-12-04T06:37:22.686Z,499.45
2022-12-04T06:39:49.412Z,490.08
2022-12-04T06:42:16.784Z,491.92
2022-12-04T06:44:43.428Z,505.70
2022-12-04T06:47:10.115Z,498.35
2022-12-04T06:49:36.676Z,494.08
2022-12-04T06:52:03.878Z,487.77
2022-12-04T06:54:30.470Z,499.38
2022-12-04T06:56:57.097Z,488.42
2022-12-04T06:59:23.828Z,491.77
2022-12-04T07:01:50.673Z,488.60
2022-12-04T07:04:17.351Z,492.48
2022-12-04T07:06:44.075Z,502.77
2022-12-04T07:09:14.667Z,508.90
2022-12-04T07:11:42.368Z,503.00
2022-12-04T07:14:09.259Z,494.95
2022-12-04T07:16:40.604Z,496.20
2022-12-04T07:19:12.887Z,497.67
2022-12-04T07:21:40.059Z,500.00
2022-12-04T07:24:06.802Z,504.15
2022-12-04T07:26:35.135Z,498.38
2022-12-04T07:29:01.807Z,496.27
2022-12-04T07:31:29.555Z,504.85
2022-12-04T07:33:57.433Z,497.63
2022-12-04T07:36:25.820Z,488.33
2022-12-04T07:38:52.506Z,489.10
2022-12-04T07:41:19.825Z,497.60
2022-12-04T07:43:46.657Z,491.07
2022-12-04T07:46:22.587Z,483.48
2022-12-04T07:48:49.329Z,483.55
2022-12-04T07:51:23.096Z,490.77
2022-12-04T07:53:51.059Z,485.50
2022-12-04T07:56:18.635Z,495.08
2022-12-04T07:58:45.978Z,486.63
2022-12-04T08:01:16.338Z,490.25
2022-12-04T08:03:48.116Z,499.33
2022-12-04T08:06:17.850Z,497.77
2022-12-04T08:08:45.094Z,491.27
2022-12-04T08:11:15.003Z,482.13
2022-12-04T08:13:41.862Z,481.13
2022-12-04T08:16:10.326Z,491.10
2022-12-04T08:18:37.217Z,488.40
2022-12-04T08:21:08.315Z,487.63
2022-12-04T08:23:35.682Z,490.27
2022-12-04T08:26:02.797Z,501.25
2022-12-04T08:28:29.779Z,479.50
2022-12-04T08:31:03.223Z,488.88
2022-12-04T08:33:29.866Z,487.07
2022-12-04T08:35:56.536Z,476.63
2022-12-04T08:38:23.109Z,483.95
2022-12-04T08:40:49.995Z,495.05
2022-12-04T08:43:16.632Z,499.88
2022-12-04T08:45:43.280Z,499.33
2022-12-04T08:48:09.960Z,494.65
2022-12-04T08:50:36.499Z,486.67
2022-12-04T08:53:03.127Z,494.10
2022-12-04T08:55:29.696Z,488.13
2022-12-04T08:57:56.253Z,489.35
2022-12-04T09:00:23.020Z,496.38
2022-12-04T09:02:50.155Z,482.50
2022-12-04T09:05:17.171Z,489.30
2022-12-04T09:07:43.804Z,478.95
2022-12-04T09:10:11.101Z,482.00
2022-12-04T09:12:37.765Z,466.83
2022-12-04T09:15:04.748Z,463.25
2022-12-04T09:17:31.525Z,468.00
2022-12-04T09:20:01.222Z,464.75
2022-12-04T09:22:45.439Z,473.33
2022-12-04T09:25:12.469Z,470.17
2022-12-04T09:27:41.621Z,471.80
2022-12-04T09:30:10.136Z,465.95
2022-12-04T09:32:36.882Z,468.13
2022-12-04T09:35:05.022Z,469.27
2022-12-04T09:37:33.423Z,478.50
2022-12-04T09:40:00.127Z,473.80
2022-12-04T09:42:54.833Z,474.10
2022-12-04T09:45:25.334Z,475.75
2022-12-04T09:47:59.341Z,463.50
2022-12-04T09:50:33.874Z,465.38
2022-12-04T09:53:10.815Z,465.65
2022-12-04T09:55:41.173Z,466.73
2022-12-04T09:58:14.991Z,469.38
2022-12-04T10:00:44.235Z,476.85
2022-12-04T10:03:16.772Z,465.70
2022-12-04T10:05:59.488Z,463.90
2022-12-04T10:08:35.884Z,465.58
2022-12-04T10:11:12.209Z,461.67
2022-12-04T10:13:57.397Z,456.35
2022-12-04T10:16:49.121Z,450.63
2022-12-04T10:19:18.563Z,464.02
2022-12-04T10:21:51.817Z,470.65
2022-12-04T10:24:33.415Z,468.70
2022-12-04T10:27:06.698Z,472.83
2022-12-04T10:29:35.979Z,479.65
2022-12-04T10:32:26.834Z,476.48
2022-12-04T10:34:56.541Z,479.08
2022-12-04T10:37:24.244Z,475.35
2022-12-04T10:40:14.122Z,480.23
2022-12-04T10:42:54.049Z,475.90
2022-12-04T10:45:23.096Z,468.23
2022-12-04T10:47:51.861Z,473.85
2022-12-04T10:50:21.920Z,473.17
2022-12-04T10:52:48.681Z,467.00
2022-12-04T10:55:15.319Z,467.97
2022-12-04T10:57:45.141Z,464.15
2022-12-04T11:00:27.107Z,468.67
2022-12-04T11:02:55.717Z,459.92
2022-12-04T11:05:53.261Z,459.87
2022-12-04T11:08:26.457Z,455.20
2022-12-04T11:11:05.387Z,459.92
2022-12-04T11:13:32.066Z,462.23
2022-12-04T11:15:59.314Z,462.50
2022-12-04T11:18:31.289Z,456.75
2022-12-04T11:21:06.908Z,463.33
2022-12-04T11:23:44.552Z,463.77
2022-12-04T11:26:12.067Z,461.17
2022-12-04T11:28:43.739Z,464.15
2022-12-04T11:31:18.196Z,464.35
2022-12-04T11:34:02.937Z,456.63
2022-12-04T11:36:34.962Z,463.70
2022-12-04T11:39:15.690Z,463.08
2022-12-04T11:41:42.775Z,466.58
2022-12-04T11:44:27.594Z,458.42
2022-12-04T11:46:58.492Z,454.60
2022-12-04T11:49:26.659Z,459.23
2022-12-04T11:52:05.202Z,466.50
2022-12-04T11:54:51.006Z,462.67
2022-12-04T11:57:27.515Z,452.15
2022-12-04T12:00:00.046Z,449.83
2022-12-04T12:02:38.578Z,454.38
2022-12-04T12:05:18.602Z,462.30
2022-12-04T12:08:12.317Z,463.45
2022-12-04T12:11:05.320Z,459.70
2022-12-04T12:13:57.244Z,460.83
2022-12-04T12:17:04.412Z,453.25
2022-12-04T12:19:58.017Z,451.65
2022-12-04T12:22:54.235Z,458.80
2022-12-04T12:25:38.603Z,463.37
2022-12-04T12:28:29.642Z,458.15
2022-12-04T12:31:17.260Z,450.67
2022-12-04T12:33:51.817Z,455.33
2022-12-04T12:36:21.761Z,455.88
2022-12-04T12:38:53.810Z,455.50
2022-12-04T12:41:26.822Z,458.57
2022-12-04T12:44:21.486Z,452.02
2022-12-04T12:47:00.828Z,457.83
2022-12-04T12:49:47.709Z,453.98
2022-12-04T12:52:39.091Z,458.10
2022-12-04T12:55:26.923Z,448.10
2022-12-04T12:58:04.572Z,446.77
2022-12-04T13:00:36.848Z,453.00
2022-12-04T13:03:19.376Z,438.45
2022-12-04T13:05:51.838Z,432.23
2022-12-04T13:08:25.843Z,439.45
2022-12-04T13:11:08.894Z,453.77
2022-12-04T13:13:43.263Z,456.73
2022-12-04T13:16:17.777Z,455.50
2022-12-04T13:19:04.670Z,459.85
2022-12-04T13:21:37.316Z,461.13
2022-12-04T13:24:16.094Z,449.23
2022-12-04T13:27:05.849Z,444.77
2022-12-04T13:30:09.957Z,432.08
2022-12-04T13:33:08.982Z,444.92
2022-12-04T13:36:07.127Z,448.08
2022-12-04T13:38:58.037Z,452.65
2022-12-04T13:41:27.216Z,459.35
2022-12-04T13:43:55.052Z,456.02
2022-12-04T13:46:40.998Z,460.77
2022-12-04T13:49:31.887Z,456.42
2022-12-04T13:52:00.266Z,461.27
2022-12-04T13:54:31.596Z,466.70
2022-12-04T13:57:30.559Z,468.67
2022-12-04T14:00:23.946Z,461.13
2022-12-04T14:02:55.637Z,467.17
2022-12-04T14:05:42.734Z,466.88
2022-12-04T14:08:24.935Z,458.35
2022-12-04T14:11:17.362Z,457.57
2022-12-04T14:13:54.179Z,457.98
2022-12-04T14:16:30.645Z,453.55
2022-12-04T14:19:00.431Z,448.83
2022-12-04T14:21:45.391Z,451.80
2022-12-04T14:24:32.046Z,452.85
2022-12-04T14:27:14.322Z,455.63
2022-12-04T14:29:48.066Z,457.42
2022-12-04T14:32:21.735Z,458.98
2022-12-04T14:34:49.820Z,467.38
2022-12-04T14:37:27.763Z,459.88
2022-12-04T14:39:56.959Z,459.20
2022-12-04T14:42:31.426Z,472.33
2022-12-04T14:45:04.025Z,474.08
2022-12-04T14:47:48.264Z,476.80
2022-12-04T14:50:55.586Z,470.00
2022-12-04T14:53:49.994Z,484.88
2022-12-04T14:56:31.396Z,483.90
2022-12-04T14:58:59.258Z,473.50
2022-12-04T15:01:30.626Z,478.50
2022-12-04T15:04:04.017Z,468.50
2022-12-04T15:06:33.229Z,475.00
2022-12-04T15:09:21.102Z,468.38
2022-12-04T15:12:11.629Z,458.92
2022-12-04T15:14:47.261Z,455.65
2022-12-04T15:17:16.142Z,453.95
2022-12-04T15:19:42.811Z,463.38
2022-12-04T15:22:26.061Z,466.55
2022-12-04T15:24:54.957Z,451.87
2022-12-04T15:27:31.678Z,457.00
2022-12-04T15:30:01.308Z,464.50
2022-12-04T15:32:28.831Z,464.83
2022-12-04T15:35:01.208Z,460.98
2022-12-04T15:37:32.777Z,445.65
2022-12-04T15:40:00.033Z,454.80
2022-12-04T15:42:28.028Z,459.85
2022-12-04T15:45:01.899Z,452.13
2022-12-04T15:47:36.679Z,458.10
2022-12-04T15:50:27.087Z,466.17
2022-12-04T15:53:22.865Z,459.73
2022-12-04T15:55:52.391Z,466.83
2022-12-04T15:58:22.875Z,453.30
2022-12-04T16:00:56.679Z,463.55
2022-12-04T16:03:43.553Z,469.05
2022-12-04T16:06:31.014Z,451.00
2022-12-04T16:09:17.078Z,452.52
2022-12-04T16:11:44.605Z,446.45
2022-12-04T16:14:11.262Z,441.23
2022-12-04T16:16:43.673Z,446.58
2022-12-04T16:19:19.133Z,439.85
2022-12-04T16:21:46.545Z,440.90
2022-12-04T16:24:14.038Z,445.65
2022-12-04T16:26:41.545Z,449.92
2022-12-04T16:29:09.011Z,443.35
2022-12-04T16:31:38.008Z,438.30
2022-12-04T16:34:04.778Z,438.88
2022-12-04T16:36:31.417Z,443.17
2022-12-04T16:38:58.013Z,437.70
2022-12-04T16:41:24.770Z,451.03
2022-12-04T16:43:57.855Z,448.60
2022-12-04T16:46:27.557Z,447.48
2022-12-04T16:48:54.136Z,446.27
2022-12-04T16:51:24.041Z,449.00
2022-12-04T16:53:51.947Z,449.48
2022-12-04T16:56:19.767Z,445.55
2022-12-04T16:58:46.647Z,450.15
2022-12-04T17:01:21.244Z,446.52
2022-12-04T17:03:48.744Z,445.65
2022-12-04T17:06:16.170Z,449.30
2022-12-04T17:08:42.868Z,449.58
2022-12-04T17:11:13.276Z,443.52
2022-12-04T17:13:40.026Z,446.85
2022-12-04T17:16:06.688Z,451.13
2022-12-04T17:18:33.250Z,446.83
2022-12-04T17:20:59.871Z,449.55
2022-12-04T17:23:27.265Z,454.98
2022-12-04T17:25:53.848Z,448.05
2022-12-04T17:28:20.392Z,449.53
2022-12-04T17:30:47.196Z,445.70
2022-12-04T17:33:14.124Z,437.33
2022-12-04T17:35:43.400Z,433.98
2022-12-04T17:38:10.040Z,440.83
2022-12-04T17:40:36.663Z,435.50
2022-12-04T17:43:03.520Z,447.27
2022-12-04T17:45:30.630Z,439.90
2022-12-04T17:47:58.647Z,451.42
2022-12-04T17:50:25.194Z,448.23
2022-12-04T17:52:51.967Z,453.70
2022-12-04T17:55:18.600Z,452.75
2022-12-04T17:57:45.189Z,456.88
2022-12-04T18:00:12.130Z,462.07
2022-12-04T18:02:42.354Z,460.43
2022-12-04T18:05:09.864Z,464.80
2022-12-04T18:07:36.676Z,466.30
2022-12-04T18:10:03.537Z,465.40
2022-12-04T18:12:30.161Z,471.40
2022-12-04T18:14:56.752Z,467.67
2022-12-04T18:17:23.520Z,463.88
2022-12-04T18:19:50.127Z,483.67
2022-12-04T18:22:16.826Z,466.50
2022-12-04T18:24:43.417Z,459.75
2022-12-04T18:27:10.020Z,459.33
2022-12-04T18:29:36.967Z,456.45
2022-12-04T18:32:03.792Z,453.88
2022-12-04T18:34:30.501Z,454.73
2022-12-04T18:36:57.273Z,442.80
2022-12-04T18:39:25.658Z,447.27
2022-12-04T18:41:55.151Z,442.40
2022-12-04T18:44:22.109Z,444.27
2022-12-04T18:46:49.219Z,448.77
2022-12-04T18:49:15.803Z,452.80
2022-12-04T18:51:49.140Z,451.35
2022-12-04T18:54:22.080Z,438.60
2022-12-04T18:56:49.607Z,430.35
2022-12-04T18:59:20.054Z,423.13
2022-12-04T19:01:50.472Z,428.07
2022-12-04T19:04:19.428Z,437.40
2022-12-04T19:06:51.747Z,419.27
2022-12-04T19:09:35.438Z,430.27
2022-12-04T19:12:08.889Z,437.40
2022-12-04T19:14:35.476Z,432.95
2022-12-04T19:17:02.078Z,425.85
2022-12-04T19:19:31.566Z,430.48
2022-12-04T19:21:59.036Z,424.63
2022-12-04T19:24:27.119Z,425.10
2022-12-04T19:26:54.045Z,422.88
2022-12-04T19:29:20.626Z,425.60
2022-12-04T19:31:47.466Z,434.55
2022-12-04T19:34:14.084Z,437.70
2022-12-04T19:36:41.254Z,438.70
2022-12-04T19:39:07.974Z,418.08
2022-12-04T19:41:37.035Z,420.65
2022-12-04T19:44:25.991Z,426.92
2022-12-04T19:46:50.986Z,428.33
2022-12-04T19:49:17.525Z,418.90
2022-12-04T19:51:44.233Z,420.03
2022-12-04T19:54:12.973Z,428.95
2022-12-04T19:56:40.134Z,423.98
2022-12-04T19:59:07.996Z,438.80
2022-12-04T20:01:35.617Z,437.90
2022-12-04T20:04:05.646Z,445.65
2022-12-04T20:06:38.591Z,446.33
2022-12-04T20:09:07.871Z,445.80
2022-12-04T20:11:35.609Z,446.00
2022-12-04T20:14:03.454Z,431.23
2022-12-04T20:16:32.668Z,435.15
2022-12-04T20:19:01.231Z,431.00
2022-12-04T20:21:31.949Z,437.13
2022-12-04T20:24:02.524Z,436.10
2022-12-04T20:26:33.440Z,427.85
2022-12-04T20:29:01.180Z,425.73
2022-12-04T20:31:33.044Z,434.35
2022-12-04T20:34:01.884Z,444.92
2022-12-04T20:36:29.975Z,445.45
2022-12-04T20:38:58.240Z,448.50
2022-12-04T20:41:29.911Z,447.30
2022-12-04T20:43:59.967Z,461.50
2022-12-04T20:46:31.625Z,456.58
2022-12-04T20:49:00.927Z,459.45
2022-12-04T20:51:31.048Z,482.67
2022-12-04T20:53:59.174Z,463.58
2022-12-04T20:56:30.459Z,474.02
2022-12-04T20:58:58.290Z,477.92
2022-12-04T21:01:25.236Z,471.52
2022-12-04T21:03:52.963Z,475.88
2022-12-04T21:06:23.394Z,475.10
2022-12-04T21:08:54.621Z,478.33
2022-12-04T21:11:29.556Z,468.38
2022-12-04T21:14:16.209Z,471.08
2022-12-04T21:16:43.655Z,470.33
2022-12-04T21:19:11.786Z,469.70
2022-12-04T21:21:38.924Z,470.08
2022-12-04T21:24:08.405Z,478.17
2022-12-04T21:26:35.170Z,492.67
2022-12-04T21:29:02.840Z,494.33
2022-12-04T21:31:30.933Z,492.00
2022-12-04T21:34:03.047Z,484.33
2022-12-04T21:36:29.654Z,489.73
2022-12-04T21:38:56.758Z,484.50
2022-12-04T21:41:42.659Z,483.75
2022-12-04T21:44:15.986Z,493.05
2022-12-04T21:46:43.646Z,493.60
2022-12-04T21:49:11.068Z,488.17
2022-12-04T21:54:25.890Z,498.10
2022-12-04T21:56:52.566Z,496.55
2022-12-04T21:59:19.210Z,497.37
2022-12-04T22:01:46.010Z,494.70
2022-12-04T22:04:12.919Z,501.93
2022-12-04T22:06:39.556Z,499.57
2022-12-04T22:09:08.738Z,495.47
2022-12-04T22:11:35.633Z,487.30
2022-12-04T22:14:02.572Z,487.67
2022-12-04T22:16:30.883Z,474.30
2022-12-04T22:18:59.487Z,480.55
2022-12-04T22:21:27.467Z,482.47
2022-12-04T22:23:58.951Z,480.45
2022-12-04T22:26:27.059Z,483.77
2022-12-04T22:28:53.948Z,476.98
2022-12-04T22:31:23.076Z,478.85
2022-12-04T22:33:51.982Z,476.67
2022-12-04T22:36:30.519Z,471.67
2022-12-04T22:39:12.912Z,475.70
2022-12-04T22:41:39.557Z,472.45
2022-12-04T22:44:06.260Z,469.42
2022-12-04T22:46:33.349Z,470.25
2022-12-04T22:49:00.160Z,475.98
2022-12-04T22:51:27.571Z,475.08
2022-12-04T22:53:56.284Z,473.33
2022-12-04T22:56:31.243Z,469.95
2022-12-04T22:58:58.716Z,468.08
2022-12-04T23:01:27.730Z,469.30
2022-12-04T23:03:54.725Z,469.55
2022-12-04T23:06:24.154Z,474.85
2022-12-04T23:08:58.936Z,475.95
2022-12-04T23:11:26.377Z,464.50
2022-12-04T23:14:00.312Z,473.92
2022-12-04T23:16:29.536Z,472.25
2022-12-04T23:18:56.772Z,473.98
2022-12-04T23:21:24.151Z,474.48
2022-12-04T23:23:52.666Z,473.58
2022-12-04T23:26:22.469Z,472.67
2022-12-04T23:28:49.104Z,479.33
2022-12-04T23:31:15.974Z,472.30
2022-12-04T23:33:42.684Z,467.02
2022-12-04T23:36:11.491Z,463.23
2022-12-04T23:38:40.179Z,464.88
2022-12-04T23:41:15.146Z,468.05
2022-12-04T23:43:43.072Z,460.48
2022-12-04T23:46:11.985Z,464.63
2022-12-04T23:48:43.024Z,467.92
2022-12-04T23:51:11.654Z,475.02
2022-12-04T23:53:38.257Z,447.77
2022-12-04T23:56:15.920Z,477.23
2022-12-04T23:58:43.486Z,468.38
